Time;durP1;ratioP1;P1;durP2;ratioP2;P2;SDS_P1;SDS_P2;PMS_P1;PMS_P2;Temp;Humidity;BMP_temperature;BMP_pressure;BME280_temperature;BME280_humidity;BME280_pressure;Samples;Min_cycle;Max_cycle;Signal;HPM_P1;HPM_P2
2021/09/11 00:00:00;;;;;;;8.73;6.70;;;;;;;18.73;66.06;96413.00;5094583;28;20506;-76
2021/09/11 00:02:27;;;;;;;9.82;6.75;;;;;;;18.66;66.63;96410.13;5094073;28;20040;-76
2021/09/11 00:04:53;;;;;;;9.43;7.20;;;;;;;18.62;67.32;96410.03;5094993;28;20044;-76
2021/09/11 00:07:21;;;;;;;9.45;7.68;;;;;;;18.59;67.17;96415.53;5093708;28;20048;-78
2021/09/11 00:09:48;;;;;;;11.15;7.95;;;;;;;18.55;68.04;96409.16;5094565;28;20044;-76
2021/09/11 00:12:14;;;;;;;10.73;7.90;;;;;;;18.55;67.85;96406.38;5093921;28;20056;-77
2021/09/11 00:14:41;;;;;;;10.05;8.20;;;;;;;18.54;68.03;96413.06;5094435;28;20040;-78
2021/09/11 00:17:09;;;;;;;11.75;8.43;;;;;;;18.48;68.75;96407.88;5094197;28;20502;-77
2021/09/11 00:19:35;;;;;;;11.02;8.23;;;;;;;18.54;69.38;96407.56;5094381;28;20056;-77
2021/09/11 00:22:02;;;;;;;10.27;8.25;;;;;;;18.56;69.36;96410.72;5093917;28;20059;-76
2021/09/11 00:24:28;;;;;;;10.95;8.50;;;;;;;18.65;69.62;96411.28;5094271;28;20040;-77
2021/09/11 00:26:56;;;;;;;12.15;8.70;;;;;;;18.71;69.32;96412.59;5094228;28;20055;-79
2021/09/11 00:29:23;;;;;;;11.98;8.98;;;;;;;18.77;69.37;96411.13;5093743;28;20044;-77
2021/09/11 00:31:49;;;;;;;12.25;8.57;;;;;;;18.78;69.57;96407.97;5094264;28;20076;-77
2021/09/11 00:34:17;;;;;;;16.13;9.10;;;;;;;18.77;69.87;96409.16;5093671;28;20093;-77
2021/09/11 00:36:43;;;;;;;11.98;8.35;;;;;;;18.81;69.69;96417.50;5093829;28;20127;-78
2021/09/11 00:39:10;;;;;;;12.57;8.68;;;;;;;18.80;69.93;96415.91;5093775;28;20044;-77
2021/09/11 00:41:36;;;;;;;11.40;8.80;;;;;;;18.82;70.11;96418.28;5093658;28;20074;-76
2021/09/11 00:44:04;;;;;;;11.65;9.48;;;;;;;18.84;69.86;96424.22;5093425;28;20039;-77
2021/09/11 00:46:30;;;;;;;12.85;8.88;;;;;;;18.80;70.07;96421.41;5092491;28;20050;-76
2021/09/11 00:48:57;;;;;;;12.35;9.13;;;;;;;18.80;70.24;96429.69;5093635;28;20050;-76
2021/09/11 00:51:25;;;;;;;12.02;9.63;;;;;;;18.81;70.00;96433.25;5093451;28;20123;-78
2021/09/11 00:53:51;;;;;;;11.18;8.95;;;;;;;18.82;70.16;96429.31;5093630;28;20133;-76
2021/09/11 00:56:18;;;;;;;11.48;9.23;;;;;;;18.77;70.26;96433.19;5092180;28;20055;-79
2021/09/11 00:58:45;;;;;;;11.93;8.90;;;;;;;18.79;70.31;96430.84;5093721;28;20056;-76
2021/09/11 01:01:12;;;;;;;10.75;8.82;;;;;;;18.80;70.59;96429.69;5093137;28;20044;-77
2021/09/11 01:03:38;;;;;;;12.90;9.52;;;;;;;18.80;70.55;96426.16;5093503;28;20039;-76
2021/09/11 01:06:05;;;;;;;12.50;9.60;;;;;;;18.72;70.67;96426.00;5093370;28;20051;-76
2021/09/11 01:08:34;;;;;;;11.30;9.18;;;;;;;18.70;71.30;96424.81;5093449;28;20060;-78
2021/09/11 01:11:00;;;;;;;11.98;8.98;;;;;;;18.69;71.09;96420.44;5093260;28;20055;-77
2021/09/11 01:13:27;;;;;;;13.75;10.43;;;;;;;18.68;71.33;96421.59;5092725;28;20527;-77
2021/09/11 01:15:57;;;;;;;11.30;9.50;;;;;;;18.71;71.68;96420.88;5093268;28;20044;-77
2021/09/11 01:18:24;;;;;;;14.55;10.70;;;;;;;18.72;71.90;96425.22;5092831;28;20040;-76
2021/09/11 01:20:51;;;;;;;13.70;10.27;;;;;;;18.70;71.82;96430.31;5093261;28;20036;-77
2021/09/11 01:23:17;;;;;;;13.60;10.80;;;;;;;18.67;72.33;96431.00;5092636;28;20048;-77
2021/09/11 01:25:45;;;;;;;13.38;10.82;;;;;;;18.61;72.63;96425.00;5093250;28;20112;-77
2021/09/11 01:28:12;;;;;;;13.77;10.77;;;;;;;18.60;73.00;96422.63;5092541;28;20044;-76
2021/09/11 01:30:39;;;;;;;17.00;12.13;;;;;;;18.57;73.28;96442.66;5092968;28;20048;-77
2021/09/11 01:33:05;;;;;;;14.70;12.02;;;;;;;18.59;73.28;96437.59;5090696;28;20044;-78
2021/09/11 01:35:32;;;;;;;19.58;12.57;;;;;;;18.59;73.28;96437.59;5093054;28;20059;-78
2021/09/11 01:37:59;;;;;;;16.20;12.75;;;;;;;18.62;73.53;96447.88;5093134;28;20047;-77
2021/09/11 01:40:25;;;;;;;18.90;14.07;;;;;;;18.60;73.78;96445.47;5092409;28;20044;-76
2021/09/11 01:42:53;;;;;;;18.17;13.45;;;;;;;18.64;73.41;96457.38;5092741;28;20062;-77
2021/09/11 01:45:21;;;;;;;18.08;13.77;;;;;;;18.65;73.88;96453.44;5092316;28;20052;-77
2021/09/11 01:47:49;;;;;;;14.70;12.70;;;;;;;18.68;73.63;96457.44;5092767;28;20044;-77
2021/09/11 01:50:18;;;;;;;15.23;12.45;;;;;;;18.71;73.53;96456.72;5092358;28;20046;-76
2021/09/11 01:52:44;;;;;;;17.77;13.52;;;;;;;18.70;73.70;96463.41;5092509;28;20040;-77
2021/09/11 01:55:13;;;;;;;24.15;14.23;;;;;;;18.61;73.98;96468.34;5091758;28;20048;-77
2021/09/11 01:57:41;;;;;;;16.92;13.68;;;;;;;18.66;73.96;96468.03;5092497;28;20597;-77
2021/09/11 02:00:10;;;;;;;17.80;13.90;;;;;;;18.67;74.04;96472.38;5091920;28;20063;-77
2021/09/11 02:02:37;;;;;;;20.17;15.60;;;;;;;18.62;73.98;96475.44;5092463;28;20043;-78
2021/09/11 02:05:06;;;;;;;19.98;15.15;;;;;;;18.57;74.19;96471.03;5091875;28;20040;-76
2021/09/11 02:07:33;;;;;;;19.70;15.15;;;;;;;18.57;74.76;96473.00;5092251;28;20133;-76
2021/09/11 02:09:59;;;;;;;21.25;15.80;;;;;;;18.57;74.86;96470.22;5092302;28;20044;-76
2021/09/11 02:12:25;;;;;;;21.10;16.77;;;;;;;18.52;74.72;96466.59;5091807;28;20487;-77
2021/09/11 02:14:52;;;;;;;22.52;17.45;;;;;;;18.47;75.51;96469.66;5092033;28;20044;-77
2021/09/11 02:17:20;;;;;;;24.58;18.02;;;;;;;18.52;75.42;96472.13;5091723;28;20048;-77
2021/09/11 02:19:47;;;;;;;20.92;16.73;;;;;;;18.59;75.16;96473.44;5092114;28;20044;-77
2021/09/11 02:22:14;;;;;;;22.95;17.95;;;;;;;18.63;75.55;96479.78;5091745;28;20067;-77
2021/09/11 02:24:41;;;;;;;24.42;18.00;;;;;;;18.59;75.17;96482.50;5092100;28;20047;-77
2021/09/11 02:27:08;;;;;;;24.92;18.13;;;;;;;18.56;75.69;96482.44;5091291;28;20507;-77
2021/09/11 02:29:35;;;;;;;22.55;17.60;;;;;;;18.59;75.91;96481.72;5091913;28;20048;-76
2021/09/11 02:32:04;;;;;;;24.17;18.02;;;;;;;18.61;75.92;96482.13;5091504;28;20044;-80
2021/09/11 02:34:33;;;;;;;27.25;19.30;;;;;;;18.65;76.12;96485.75;5091476;28;20123;-76
2021/09/11 02:37:00;;;;;;;25.42;18.92;;;;;;;18.66;75.96;96487.34;5091973;28;20047;-76
2021/09/11 02:39:27;;;;;;;24.70;19.10;;;;;;;18.68;75.95;96482.28;5091302;28;20039;-78
2021/09/11 02:41:54;;;;;;;23.70;18.10;;;;;;;18.63;75.95;96482.56;5091693;28;20055;-78
2021/09/11 02:44:20;;;;;;;24.60;19.55;;;;;;;18.57;76.65;96489.53;5089660;28;20047;-78
2021/09/11 02:46:47;;;;;;;25.88;19.48;;;;;;;18.54;76.90;96487.53;5091449;28;20048;-77
2021/09/11 02:49:13;;;;;;;24.95;19.35;;;;;;;18.54;76.83;96493.03;5091262;28;20047;-77
2021/09/11 02:51:41;;;;;;;25.70;19.58;;;;;;;18.50;77.10;96491.00;5091855;28;20483;-77
2021/09/11 02:54:08;;;;;;;26.00;19.00;;;;;;;18.47;77.34;96494.47;5090772;28;20051;-77
2021/09/11 02:56:34;;;;;;;24.15;19.02;;;;;;;18.43;77.46;96490.88;5091237;28;20040;-77
2021/09/11 02:59:00;;;;;;;23.48;18.08;;;;;;;18.41;77.68;96490.44;5091410;28;20495;-77
2021/09/11 03:01:27;;;;;;;24.23;19.17;;;;;;;18.30;78.18;96492.19;5091156;28;20059;-77
2021/09/11 03:03:53;;;;;;;23.67;18.85;;;;;;;18.22;78.50;96491.28;5091255;28;20047;-77
2021/09/11 03:06:20;;;;;;;25.45;18.90;;;;;;;18.12;79.42;96491.06;5090902;28;20040;-77
2021/09/11 03:08:48;;;;;;;24.60;19.88;;;;;;;17.95;80.08;96490.31;5091269;28;20039;-76
2021/09/11 03:11:14;;;;;;;27.30;19.58;;;;;;;17.88;80.83;96487.44;5090891;28;20044;-77
2021/09/11 03:13:42;;;;;;;24.83;19.80;;;;;;;17.84;81.02;96492.06;5091359;28;20040;-77
2021/09/11 03:16:08;;;;;;;27.80;19.33;;;;;;;17.74;81.24;96489.88;5090791;28;20059;-77
2021/09/11 03:18:35;;;;;;;28.08;19.40;;;;;;;17.74;81.71;96492.63;5090812;28;20510;-77
2021/09/11 03:21:02;;;;;;;26.98;20.30;;;;;;;17.76;81.60;96495.03;5090640;28;20048;-75
2021/09/11 03:23:28;;;;;;;26.63;20.13;;;;;;;17.75;81.79;96488.75;5091165;28;20053;-77
2021/09/11 03:25:56;;;;;;;24.90;19.75;;;;;;;17.80;81.86;96485.69;5091075;28;20052;-77
2021/09/11 03:28:23;;;;;;;26.63;20.17;;;;;;;17.82;81.81;96486.13;5090684;28;20044;-78
2021/09/11 03:30:49;;;;;;;25.33;20.63;;;;;;;17.83;82.20;96479.44;5091294;28;20051;-77
2021/09/11 03:33:15;;;;;;;26.75;19.70;;;;;;;17.79;82.36;96486.84;5090246;28;20047;-78
2021/09/11 03:35:42;;;;;;;26.10;20.15;;;;;;;17.80;82.63;96482.13;5090987;28;20044;-79
2021/09/11 03:38:08;;;;;;;27.52;20.15;;;;;;;17.83;82.75;96482.22;5090673;28;20040;-77
2021/09/11 03:40:35;;;;;;;27.48;20.52;;;;;;;17.85;82.67;96487.34;5090936;28;20043;-76
2021/09/11 03:43:03;;;;;;;26.90;20.65;;;;;;;17.87;82.55;96487.78;5090581;28;20044;-78
2021/09/11 03:45:30;;;;;;;26.67;20.23;;;;;;;17.91;82.40;96481.22;5090993;28;20612;-76
2021/09/11 03:47:56;;;;;;;25.33;19.85;;;;;;;17.94;82.44;96488.72;5090935;28;20241;-76
2021/09/11 03:50:23;;;;;;;24.92;19.35;;;;;;;17.98;81.81;96486.84;5090497;28;20490;-75
2021/09/11 03:52:49;;;;;;;23.90;19.20;;;;;;;17.93;81.96;96489.91;5091014;28;20051;-76
2021/09/11 03:55:16;;;;;;;23.48;18.48;;;;;;;18.02;81.98;96486.13;5090060;28;20071;-76
2021/09/11 03:57:42;;;;;;;21.95;18.25;;;;;;;18.05;81.80;96488.16;5090867;28;20047;-76
2021/09/11 04:00:12;;;;;;;19.42;16.63;;;;;;;18.02;81.51;96491.66;5090470;28;20487;-76
2021/09/11 04:02:38;;;;;;;19.38;15.98;;;;;;;18.04;81.50;96492.88;5090867;28;20399;-76
2021/09/11 04:05:06;;;;;;;20.88;16.58;;;;;;;18.08;81.64;96495.69;5090180;28;20044;-76
2021/09/11 04:07:32;;;;;;;18.80;14.68;;;;;;;18.13;80.82;96495.41;5090607;28;20047;-76
2021/09/11 04:09:59;;;;;;;16.20;14.32;;;;;;;18.17;79.89;96499.03;5090875;28;20044;-76
2021/09/11 04:12:25;;;;;;;19.70;13.93;;;;;;;18.15;79.81;96501.34;5090495;28;20403;-76
2021/09/11 04:14:52;;;;;;;16.88;14.00;;;;;;;18.13;80.05;96509.19;5090506;28;20048;-76
2021/09/11 04:17:20;;;;;;;19.27;14.52;;;;;;;18.11;80.57;96505.97;5089286;28;20051;-76
2021/09/11 04:19:46;;;;;;;16.20;13.68;;;;;;;18.10;80.68;96505.19;5090518;28;20043;-76
2021/09/11 04:22:12;;;;;;;17.67;13.95;;;;;;;18.13;80.80;96506.44;5090327;28;20067;-76
2021/09/11 04:24:39;;;;;;;16.60;13.88;;;;;;;18.14;80.57;96517.09;5090654;28;20052;-78
2021/09/11 04:27:06;;;;;;;16.05;13.13;;;;;;;18.17;80.62;96512.81;5090197;28;20050;-77
2021/09/11 04:29:32;;;;;;;19.70;13.90;;;;;;;18.17;80.64;96516.38;5090658;28;20037;-76
2021/09/11 04:31:58;;;;;;;15.43;12.95;;;;;;;18.20;80.72;96518.38;5092357;28;20040;-76
2021/09/11 04:34:26;;;;;;;15.95;13.25;;;;;;;18.21;80.45;96521.94;5093358;28;20506;-77
2021/09/11 04:36:53;;;;;;;15.27;12.48;;;;;;;18.22;79.95;96520.81;5094069;28;20036;-76
2021/09/11 04:39:19;;;;;;;14.73;11.38;;;;;;;18.24;79.91;96533.03;5093587;28;20044;-77
2021/09/11 04:41:46;;;;;;;15.40;11.15;;;;;;;18.19;79.70;96535.28;5093920;28;20044;-77
2021/09/11 04:44:12;;;;;;;15.50;11.40;;;;;;;18.17;79.95;96537.63;5093465;28;20044;-76
2021/09/11 04:46:39;;;;;;;12.10;10.38;;;;;;;18.14;80.16;96550.16;5093951;28;20040;-78
2021/09/11 04:49:05;;;;;;;14.75;11.68;;;;;;;18.12;80.42;96546.97;5093454;28;20044;-76
2021/09/11 04:51:33;;;;;;;13.60;11.57;;;;;;;18.08;80.65;96550.81;5094021;28;20051;-78
2021/09/11 04:53:59;;;;;;;16.92;11.60;;;;;;;18.04;80.52;96549.94;5093458;28;20044;-76
2021/09/11 04:56:26;;;;;;;14.85;11.48;;;;;;;18.02;80.69;96546.75;5093381;28;20044;-77
2021/09/11 04:58:52;;;;;;;14.93;10.82;;;;;;;18.02;80.67;96552.28;5093682;28;20052;-76
2021/09/11 05:01:19;;;;;;;14.18;11.13;;;;;;;18.04;80.55;96538.91;5093185;28;20048;-77
2021/09/11 05:03:45;;;;;;;16.90;10.52;;;;;;;18.13;80.20;96536.75;5093499;28;20511;-77
2021/09/11 05:06:12;;;;;;;14.38;9.63;;;;;;;18.15;79.54;96537.19;5093059;28;20142;-77
2021/09/11 05:08:40;;;;;;;15.23;9.98;;;;;;;17.79;79.99;96533.66;5093561;28;20043;-79
2021/09/11 05:11:07;;;;;;;15.70;10.88;;;;;;;17.35;83.48;96539.34;5093686;28;20044;-79
2021/09/11 05:13:34;;;;;;;19.20;10.73;;;;;;;17.08;85.88;96534.75;5093960;28;20062;-78
2021/09/11 05:16:00;;;;;;;16.75;9.90;;;;;;;16.90;86.88;96537.84;5093929;28;20050;-78
2021/09/11 05:18:27;;;;;;;13.13;9.32;;;;;;;16.75;87.71;96541.38;5093560;28;20040;-78
2021/09/11 05:20:54;;;;;;;13.30;9.18;;;;;;;16.74;87.97;96527.97;5093558;28;20046;-79
2021/09/11 05:23:20;;;;;;;12.15;9.82;;;;;;;16.75;88.09;96530.38;5083714;28;20048;-78
2021/09/11 05:25:48;;;;;;;13.77;8.98;;;;;;;16.68;87.95;96519.16;5093323;28;20048;-78
2021/09/11 05:28:15;;;;;;;14.05;9.98;;;;;;;16.61;88.06;96514.28;5092953;28;20044;-78
2021/09/11 05:30:41;;;;;;;13.07;8.30;;;;;;;16.50;87.94;96517.91;5093186;28;20047;-78
2021/09/11 05:33:08;;;;;;;11.43;9.13;;;;;;;16.37;88.29;96514.41;5092419;28;20489;-79
2021/09/11 05:35:34;;;;;;;13.60;9.38;;;;;;;16.31;89.34;96511.13;5093580;28;20046;-78
2021/09/11 05:38:01;;;;;;;11.80;9.18;;;;;;;16.28;90.10;96516.50;5093086;28;20047;-78
2021/09/11 05:40:27;;;;;;;14.02;9.43;;;;;;;16.29;90.43;96513.44;5092780;28;20055;-78
2021/09/11 05:42:55;;;;;;;16.50;10.23;;;;;;;16.32;90.64;96515.47;5092568;28;20509;-78
2021/09/11 05:45:21;;;;;;;16.30;11.77;;;;;;;16.36;90.90;96516.38;5092259;28;20047;-79
2021/09/11 05:47:48;;;;;;;16.48;12.38;;;;;;;16.42;91.10;96517.69;5092540;28;20044;-78
2021/09/11 05:50:14;;;;;;;15.38;12.30;;;;;;;16.47;91.19;96519.41;5092290;28;20659;-78
2021/09/11 05:52:41;;;;;;;16.88;12.30;;;;;;;16.50;90.96;96523.41;5092912;28;20051;-78
2021/09/11 05:55:08;;;;;;;17.65;12.55;;;;;;;16.53;91.11;96528.97;5092018;28;20491;-78
2021/09/11 05:57:35;;;;;;;17.73;13.82;;;;;;;16.58;91.25;96531.47;5092607;28;20070;-78
2021/09/11 06:00:03;;;;;;;18.08;13.57;;;;;;;16.64;91.46;96535.56;5092598;28;20214;-72
2021/09/11 06:02:30;;;;;;;19.02;13.50;;;;;;;16.67;91.11;96534.06;5092421;28;20056;-79
2021/09/11 06:04:56;;;;;;;19.17;13.98;;;;;;;16.72;91.38;96533.84;5092596;28;20044;-78
2021/09/11 06:07:23;;;;;;;17.25;13.40;;;;;;;16.76;91.04;96532.00;5092096;28;20044;-78
2021/09/11 06:09:49;;;;;;;19.08;13.38;;;;;;;16.76;91.10;96529.25;5092466;28;20521;-79
2021/09/11 06:12:16;;;;;;;16.95;11.43;;;;;;;16.66;88.97;96526.97;5092128;28;20048;-79
2021/09/11 06:14:42;;;;;;;16.00;11.88;;;;;;;16.66;89.33;96526.97;5092321;28;20044;-79
2021/09/11 06:17:11;;;;;;;17.77;12.07;;;;;;;16.65;89.47;96525.34;5091903;28;20051;-78
2021/09/11 06:19:38;;;;;;;16.08;11.98;;;;;;;16.64;89.94;96537.50;5091953;28;20128;-78
2021/09/11 06:22:05;;;;;;;16.10;12.25;;;;;;;16.60;90.65;96534.69;5091935;28;20043;-80
2021/09/11 06:24:31;;;;;;;17.75;12.95;;;;;;;16.59;91.24;96532.28;5092187;28;20040;-78
2021/09/11 06:26:58;;;;;;;18.45;13.00;;;;;;;16.62;91.63;96531.56;5091932;28;20040;-78
2021/09/11 06:29:24;;;;;;;17.92;13.60;;;;;;;16.59;91.72;96529.53;5091114;28;20044;-80
2021/09/11 06:31:51;;;;;;;21.00;14.98;;;;;;;16.62;92.12;96526.06;5092008;28;20048;-79
2021/09/11 06:34:19;;;;;;;19.60;14.75;;;;;;;16.61;91.88;96535.47;5089885;28;20040;-78
2021/09/11 06:36:45;;;;;;;18.45;14.65;;;;;;;16.63;91.98;96527.66;5091482;28;20047;-78
2021/09/11 06:39:12;;;;;;;18.70;13.15;;;;;;;16.64;92.20;96535.56;5091269;28;20047;-78
2021/09/11 06:41:38;;;;;;;20.08;14.50;;;;;;;16.62;92.37;96526.88;5091956;28;20044;-77
2021/09/11 06:44:05;;;;;;;23.23;15.57;;;;;;;16.70;92.84;96525.09;5091286;28;20040;-78
2021/09/11 06:46:32;;;;;;;23.40;15.02;;;;;;;16.78;92.92;96524.16;5091846;28;20040;-78
2021/09/11 06:48:58;;;;;;;20.95;15.77;;;;;;;16.93;92.64;96534.38;5091401;28;20503;-78
2021/09/11 06:51:26;;;;;;;21.02;14.32;;;;;;;16.95;91.88;96534.81;5090396;28;20040;-79
2021/09/11 06:53:53;;;;;;;18.35;13.75;;;;;;;17.02;91.62;96534.22;5090228;28;20062;-79
2021/09/11 06:56:19;;;;;;;16.15;12.48;;;;;;;17.02;91.03;96533.41;5090930;28;20431;-79
2021/09/11 06:58:46;;;;;;;15.98;11.90;;;;;;;16.94;90.37;96538.72;5090813;28;20491;-79
2021/09/11 07:01:12;;;;;;;15.63;12.05;;;;;;;17.00;90.78;96533.75;5091000;28;20052;-78
2021/09/11 07:03:39;;;;;;;13.18;11.63;;;;;;;16.92;89.85;96538.28;5091521;28;20044;-79
2021/09/11 07:06:06;;;;;;;13.68;11.85;;;;;;;16.91;90.28;96533.94;5090817;28;20043;-79
2021/09/11 07:08:34;;;;;;;15.38;12.63;;;;;;;16.98;90.68;96538.81;5090796;28;20044;-78
2021/09/11 07:11:01;;;;;;;17.13;13.90;;;;;;;17.10;90.60;96541.47;5091158;28;20036;-79
2021/09/11 07:13:28;;;;;;;20.35;15.57;;;;;;;17.22;90.99;96538.63;5091135;28;20042;-78
2021/09/11 07:15:54;;;;;;;23.70;16.63;;;;;;;17.46;91.93;96548.63;5091028;28;20506;-78
2021/09/11 07:18:21;;;;;;;17.02;13.20;;;;;;;17.84;92.34;96549.91;5090796;28;20504;-78
2021/09/11 07:20:47;;;;;;;16.30;10.90;;;;;;;17.70;88.86;96549.59;5091336;28;20513;-80
2021/09/11 07:23:14;;;;;;;13.23;11.07;;;;;;;17.63;89.41;96547.44;5090795;28;20048;-79
2021/09/11 07:25:42;;;;;;;12.68;10.70;;;;;;;17.54;88.19;96549.63;5091018;28;20048;-78
2021/09/11 07:28:08;;;;;;;13.57;11.40;;;;;;;17.48;88.16;96549.06;5090759;28;20044;-79
2021/09/11 07:30:35;;;;;;;15.10;11.63;;;;;;;17.54;88.74;96555.13;5091230;28;20055;-79
2021/09/11 07:33:02;;;;;;;17.33;11.93;;;;;;;17.66;89.04;96554.19;5090101;28;20127;-78
2021/09/11 07:35:29;;;;;;;15.05;12.13;;;;;;;17.72;89.01;96561.84;5090938;28;20046;-79
2021/09/11 07:37:55;;;;;;;16.30;11.98;;;;;;;17.84;88.68;96562.88;5091033;28;20515;-77
2021/09/11 07:40:22;;;;;;;13.60;11.18;;;;;;;17.86;87.74;96558.63;5090625;28;20109;-79
2021/09/11 07:42:50;;;;;;;12.98;10.57;;;;;;;17.84;87.00;96566.44;5090857;28;20055;-79
2021/09/11 07:45:16;;;;;;;15.88;12.55;;;;;;;17.83;86.93;96564.03;5090647;28;20055;-78
2021/09/11 07:47:43;;;;;;;14.20;11.40;;;;;;;17.86;86.52;96566.88;5090905;28;20044;-79
2021/09/11 07:50:11;;;;;;;16.77;13.38;;;;;;;17.89;86.72;96560.66;5090365;28;20047;-79
2021/09/11 07:52:37;;;;;;;14.80;11.63;;;;;;;17.96;86.49;96571.84;5090520;28;20048;-78
2021/09/11 07:55:05;;;;;;;14.10;11.50;;;;;;;18.09;87.63;96566.19;5088898;28;20040;-78
2021/09/11 07:57:32;;;;;;;15.40;11.45;;;;;;;18.18;87.77;96573.09;5089357;28;20055;-78
2021/09/11 07:59:59;;;;;;;15.27;11.75;;;;;;;18.26;88.02;96574.03;5090943;28;20044;-78
2021/09/11 08:02:26;;;;;;;17.15;13.05;;;;;;;18.34;87.83;96575.78;5089946;28;20044;-78
2021/09/11 08:04:52;;;;;;;15.00;11.77;;;;;;;18.40;85.71;96574.31;5089974;28;20098;-79
2021/09/11 08:07:20;;;;;;;16.05;12.13;;;;;;;18.47;85.78;96579.97;5093684;28;20047;-79
2021/09/11 08:09:47;;;;;;;17.58;13.52;;;;;;;18.59;86.71;96576.28;5094634;28;20056;-79
2021/09/11 08:12:13;;;;;;;14.77;11.10;;;;;;;18.73;85.23;96570.25;5094055;28;20044;-78
2021/09/11 08:14:40;;;;;;;12.02;10.63;;;;;;;18.82;84.29;96575.53;5093676;28;20040;-77
2021/09/11 08:17:07;;;;;;;13.13;10.63;;;;;;;18.90;83.64;96583.59;5093449;28;20040;-77
2021/09/11 08:19:34;;;;;;;13.90;11.65;;;;;;;18.95;84.26;96583.28;5094273;28;20047;-77
2021/09/11 08:22:00;;;;;;;15.75;11.77;;;;;;;18.98;84.03;96581.75;5094470;28;20056;-79
2021/09/11 08:24:27;;;;;;;13.73;11.50;;;;;;;19.07;84.47;96584.28;5093675;28;20044;-79
2021/09/11 08:26:53;;;;;;;14.07;11.00;;;;;;;19.12;82.51;96583.97;5094218;28;20040;-79
2021/09/11 08:29:20;;;;;;;13.45;11.50;;;;;;;19.13;82.43;96586.34;5093709;28;20511;-77
2021/09/11 08:31:46;;;;;;;15.23;11.07;;;;;;;19.18;83.11;96583.28;5093997;28;20130;-78
2021/09/11 08:34:15;;;;;;;14.27;11.50;;;;;;;19.25;83.31;96582.59;5093306;28;20487;-78
2021/09/11 08:36:41;;;;;;;17.77;11.35;;;;;;;19.30;82.53;96582.28;5093836;28;20047;-78
2021/09/11 08:39:08;;;;;;;13.60;11.02;;;;;;;19.34;82.71;96583.16;5093497;28;20040;-78
2021/09/11 08:41:35;;;;;;;14.00;10.95;;;;;;;19.38;82.77;96584.03;5093656;28;20040;-78
2021/09/11 08:44:01;;;;;;;12.50;10.77;;;;;;;19.46;82.83;96580.19;5093462;28;20044;-77
2021/09/11 08:46:29;;;;;;;17.25;12.90;;;;;;;19.51;83.04;96581.84;5093442;28;20522;-79
2021/09/11 08:48:56;;;;;;;12.98;10.82;;;;;;;19.56;82.51;96585.09;5094031;28;20054;-79
2021/09/11 08:51:24;;;;;;;13.07;9.80;;;;;;;19.65;79.49;96586.84;5091698;28;20048;-78
2021/09/11 08:53:51;;;;;;;10.43;8.10;;;;;;;19.64;75.81;96579.72;5102178;27;20249;-78
2021/09/11 08:56:17;;;;;;;9.35;7.68;;;;;;;19.71;75.49;96579.81;5110585;27;20052;-78
2021/09/11 08:58:45;;;;;;;9.13;7.05;;;;;;;19.73;73.38;96577.47;5110767;27;20047;-80
2021/09/11 09:01:11;;;;;;;10.02;7.80;;;;;;;19.84;75.30;96578.44;5110493;27;20052;-78
2021/09/11 09:03:40;;;;;;;9.65;8.32;;;;;;;19.90;76.17;96576.94;5097044;27;20662;-79
2021/09/11 09:06:12;;;;;;;12.68;8.77;;;;;;;20.02;76.37;96587.78;5089648;28;20102;-77
2021/09/11 09:08:40;;;;;;;10.97;8.70;;;;;;;20.17;76.65;96583.25;5090245;28;20068;-77
2021/09/11 09:11:22;;;;;;;10.25;8.25;;;;;;;20.31;76.43;96582.66;5089872;28;20052;-77
2021/09/11 09:13:51;;;;;;;9.95;8.00;;;;;;;20.45;76.18;96580.03;5089093;28;20521;-79
2021/09/11 09:16:18;;;;;;;9.15;7.95;;;;;;;20.52;74.46;96573.84;5087310;28;20044;-76
2021/09/11 09:18:44;;;;;;;8.93;7.25;;;;;;;20.60;75.07;96578.28;5088342;28;20047;-78
2021/09/11 09:21:19;;;;;;;10.18;7.25;;;;;;;20.73;75.06;96573.28;5087794;28;20582;-78
2021/09/11 09:23:48;;;;;;;8.35;6.93;;;;;;;20.81;72.46;96578.50;5088422;28;20054;-78
2021/09/11 09:26:15;;;;;;;8.27;6.47;;;;;;;20.91;67.53;96585.34;5088084;28;20059;-78
2021/09/11 09:28:41;;;;;;;9.30;7.13;;;;;;;20.97;67.08;96580.25;5089404;28;20052;-79
2021/09/11 09:31:10;;;;;;;9.85;7.40;;;;;;;21.20;68.90;96577.31;5089539;28;20047;-78
2021/09/11 09:33:38;;;;;;;9.43;7.57;;;;;;;21.43;69.90;96586.25;5089544;28;20105;-78
2021/09/11 09:36:05;;;;;;;8.10;6.93;;;;;;;21.67;69.11;96578.53;5089402;28;20471;-78
2021/09/11 09:38:32;;;;;;;10.15;7.65;;;;;;;21.92;70.51;96576.69;5090138;28;20059;-78
2021/09/11 09:41:00;;;;;;;11.55;7.65;;;;;;;22.18;67.35;96577.66;5089810;28;20044;-79
2021/09/11 09:43:31;;;;;;;12.48;7.20;;;;;;;22.20;67.86;96578.88;5089428;28;20044;-78
2021/09/11 09:46:09;;;;;;;11.27;6.90;;;;;;;22.38;67.73;96576.19;5089297;28;20047;-78
2021/09/11 09:48:36;;;;;;;8.85;7.78;;;;;;;22.46;66.47;96571.47;5088176;28;20044;-78
2021/09/11 09:51:05;;;;;;;10.50;7.30;;;;;;;22.34;63.59;96570.63;5088140;28;20048;-78
2021/09/11 09:53:32;;;;;;;8.95;7.18;;;;;;;22.30;66.34;96566.25;5088523;28;20078;-77
2021/09/11 09:56:00;;;;;;;9.88;7.60;;;;;;;22.17;64.17;96565.00;5087944;28;20052;-78
2021/09/11 09:58:27;;;;;;;9.25;7.13;;;;;;;22.11;65.83;96562.59;5088621;28;20040;-78
2021/09/11 10:00:53;;;;;;;10.38;7.47;;;;;;;22.23;65.29;96568.97;5088721;28;20044;-78
2021/09/11 10:03:20;;;;;;;9.45;7.35;;;;;;;22.61;67.99;96562.81;5087577;28;20044;-78
2021/09/11 10:05:51;;;;;;;8.18;6.43;;;;;;;22.85;62.68;96568.81;5088899;28;20058;-77
2021/09/11 10:08:19;;;;;;;9.35;6.95;;;;;;;23.14;62.25;96566.94;5087591;28;20048;-78
2021/09/11 10:10:47;;;;;;;12.00;7.00;;;;;;;23.29;62.86;96562.19;5088759;28;20498;-78
2021/09/11 10:13:16;;;;;;;8.88;7.22;;;;;;;23.26;68.11;96557.41;5088042;28;20134;-77
2021/09/11 10:15:55;;;;;;;8.75;7.20;;;;;;;23.21;62.62;96560.59;5087581;28;20056;-77
2021/09/11 10:18:44;;;;;;;11.27;7.82;;;;;;;22.78;59.92;96554.94;5088087;28;20048;-77
2021/09/11 10:21:12;;;;;;;9.80;6.68;;;;;;;22.60;63.45;96552.91;5087691;28;20105;-77
2021/09/11 10:23:39;;;;;;;9.00;7.30;;;;;;;22.49;60.97;96546.50;5088361;28;20051;-77
2021/09/11 10:26:05;;;;;;;8.77;6.97;;;;;;;22.32;62.60;96552.78;5087984;28;20048;-77
2021/09/11 10:28:33;;;;;;;9.50;7.22;;;;;;;22.12;62.42;96547.53;5088057;28;20066;-79
2021/09/11 10:31:05;;;;;;;9.45;7.38;;;;;;;21.97;66.39;96545.84;5088459;28;20038;-76
2021/09/11 10:33:39;;;;;;;7.60;6.80;;;;;;;21.87;64.64;96541.03;5087782;28;20048;-79
2021/09/11 10:36:11;;;;;;;8.32;7.40;;;;;;;21.79;65.69;96539.41;5087814;28;20040;-77
2021/09/11 10:38:39;;;;;;;5.57;4.85;;;;;;;21.72;63.25;96531.06;5088009;28;20511;-77
2021/09/11 10:41:11;;;;;;;11.63;7.40;;;;;;;21.68;63.49;96535.78;5087869;28;20124;-78
2021/09/11 10:43:39;;;;;;;9.45;6.88;;;;;;;21.65;64.40;96533.75;5088028;28;20055;-77
2021/09/11 10:46:11;;;;;;;9.52;7.63;;;;;;;21.61;65.17;96533.72;5087558;28;20044;-76
2021/09/11 10:48:56;;;;;;;12.57;7.93;;;;;;;21.58;62.51;96538.06;5087977;28;20071;-77
2021/09/11 10:51:34;;;;;;;12.48;8.32;;;;;;;21.51;65.38;96534.47;5090062;28;20132;-77
2021/09/11 10:54:08;;;;;;;13.10;7.97;;;;;;;21.47;66.36;96534.44;5090009;28;20153;-76
2021/09/11 10:56:37;;;;;;;12.52;8.70;;;;;;;21.47;66.92;96528.91;5090241;28;20044;-76
2021/09/11 10:59:29;;;;;;;10.40;7.93;;;;;;;21.50;66.22;96521.78;5091009;28;20039;-77
2021/09/11 11:02:04;;;;;;;11.07;8.25;;;;;;;21.49;67.25;96520.97;5091573;28;20494;-76
2021/09/11 11:04:33;;;;;;;11.38;8.25;;;;;;;21.49;68.27;96514.66;5091105;28;20398;-77
2021/09/11 11:07:01;;;;;;;11.00;8.88;;;;;;;21.46;68.68;96519.00;5091436;28;20047;-76
2021/09/11 11:09:29;;;;;;;10.43;8.07;;;;;;;21.43;65.99;96521.75;5070803;28;20038;-76
2021/09/11 11:11:56;;;;;;;9.02;7.90;;;;;;;21.36;66.54;96528.03;5071393;28;20078;-76
2021/09/11 11:14:24;;;;;;;11.05;8.57;;;;;;;21.30;67.58;96518.50;5070528;28;20048;-77
2021/09/11 11:16:53;;;;;;;9.80;8.30;;;;;;;21.22;66.52;96517.59;5071004;28;20063;-77
2021/09/11 11:19:21;;;;;;;10.68;8.10;;;;;;;21.21;66.08;96515.22;5070630;28;20044;-77
2021/09/11 11:21:56;;;;;;;11.38;8.63;;;;;;;21.04;64.41;96516.66;5070911;28;20040;-77